createdAt,value
2023-12-23T00:00:54.846Z,981.869
2023-12-23T00:05:49.645Z,982.23
2023-12-23T00:10:52.868Z,982.664
2023-12-23T00:15:51.517Z,982.417
2023-12-23T00:20:51.029Z,982.703
2023-12-23T00:25:49.233Z,983.12
2023-12-23T00:30:51.298Z,983.082
2023-12-23T00:35:49.454Z,982.866
2023-12-23T00:40:53.927Z,982.975
2023-12-23T00:45:50.791Z,983.287
2023-12-23T00:50:48.565Z,983.217
2023-12-23T00:55:49.920Z,983.4
2023-12-23T01:00:50.828Z,983.584
2023-12-23T01:05:47.962Z,983.666
2023-12-23T01:10:49.881Z,983.565
2023-12-23T01:15:48.012Z,983.569
2023-12-23T01:20:51.123Z,983.792
2023-12-23T01:25:49.953Z,983.967
2023-12-23T01:30:50.622Z,984.044
2023-12-23T01:35:49.344Z,983.983
2023-12-23T01:40:49.692Z,984.097
2023-12-23T01:45:51.618Z,984.111
2023-12-23T01:50:50.600Z,984.327
2023-12-23T01:55:53.101Z,984.302
2023-12-23T02:00:49.900Z,984.234
2023-12-23T02:05:50.430Z,984.079
2023-12-23T02:10:49.223Z,984.273
2023-12-23T02:15:50.134Z,984.549
2023-12-23T02:20:51.246Z,984.411
2023-12-23T02:25:51.367Z,984.348
2023-12-23T02:30:51.887Z,984.496
2023-12-23T02:35:50.369Z,984.469
2023-12-23T02:40:49.587Z,984.454
2023-12-23T02:45:50.447Z,984.76
2023-12-23T02:50:50.192Z,984.543
2023-12-23T02:55:49.590Z,984.664
2023-12-23T03:00:51.591Z,984.685
2023-12-23T03:05:49.911Z,984.549
2023-12-23T03:10:49.277Z,984.762
2023-12-23T03:15:50.823Z,984.719
2023-12-23T03:20:54.405Z,984.844
2023-12-23T03:25:49.732Z,984.576
2023-12-23T03:30:52.094Z,984.655
2023-12-23T03:35:55.602Z,984.589
2023-12-23T03:40:55.223Z,984.835
2023-12-23T03:45:52.780Z,984.954
2023-12-23T03:50:56.877Z,984.922
2023-12-23T03:55:56.051Z,985.007
2023-12-23T04:00:55.011Z,985.132
2023-12-23T04:05:53.419Z,985.22
2023-12-23T04:10:57.740Z,985.442
2023-12-23T04:15:56.564Z,985.195
2023-12-23T04:20:56.882Z,985.355
2023-12-23T04:25:52.889Z,985.31
2023-12-23T04:30:54.504Z,985.62
2023-12-23T04:35:56.135Z,985.785
2023-12-23T04:40:55.676Z,986.235
2023-12-23T04:45:54.938Z,986.625
2023-12-23T04:50:54.512Z,986.638
2023-12-23T04:55:56.622Z,986.743
2023-12-23T05:00:56.601Z,987.023
2023-12-23T05:05:54.424Z,987.064
2023-12-23T05:10:53.844Z,987.161
2023-12-23T05:15:48.034Z,987.098
2023-12-23T05:20:51.066Z,987.27
2023-12-23T05:25:50.022Z,986.981
2023-12-23T05:30:50.681Z,987.442
2023-12-23T05:35:51.624Z,987.508
2023-12-23T05:40:48.751Z,987.483
2023-12-23T05:45:49.021Z,987.386
2023-12-23T05:50:50.350Z,987.308
2023-12-23T05:55:53.747Z,987.424
2023-12-23T06:00:50.922Z,987.787
2023-12-23T06:05:49.805Z,987.851
2023-12-23T06:10:54.543Z,987.867
2023-12-23T06:15:50.319Z,987.754
2023-12-23T06:20:50.861Z,988.153
2023-12-23T06:25:49.244Z,988.4
2023-12-23T06:30:51.151Z,988.453
2023-12-23T06:35:50.968Z,988.749
2023-12-23T06:40:52.593Z,988.97
2023-12-23T06:45:50.770Z,989.066
2023-12-23T06:50:52.311Z,989.009
2023-12-23T06:55:58.622Z,989.001
2023-12-23T07:00:56.839Z,989.165
2023-12-23T07:05:51.884Z,989.242
2023-12-23T07:10:54.458Z,989.151
2023-12-23T07:15:57.021Z,989.353
2023-12-23T07:20:59.677Z,989.511
2023-12-23T07:25:55.540Z,989.496
2023-12-23T07:31:00.839Z,989.482
2023-12-23T07:35:55.356Z,989.572
2023-12-23T07:40:56.951Z,989.763
2023-12-23T07:45:58.789Z,989.922
2023-12-23T07:56:02.527Z,990.014
2023-12-23T08:01:02.553Z,990.17
2023-12-23T08:56:02.734Z,989.932
2023-12-23T10:55:52.973Z,989.568
2023-12-23T11:00:53.454Z,989.632
2023-12-23T11:05:55.681Z,989.451
2023-12-23T11:10:56.415Z,989.53
2023-12-23T11:15:55.044Z,989.125
2023-12-23T11:20:52.349Z,988.991
2023-12-23T11:25:54.292Z,988.777
2023-12-23T11:30:53.682Z,988.719
2023-12-23T11:35:54.397Z,988.464
2023-12-23T11:40:57.924Z,988.338
2023-12-23T11:45:55.046Z,988.246
2023-12-23T11:50:55.173Z,988.2
2023-12-23T11:55:59.249Z,987.914
2023-12-23T12:00:57.787Z,987.886
2023-12-23T12:06:02.064Z,987.92
2023-12-23T12:11:03.405Z,987.766
2023-12-23T12:16:00.767Z,987.649
2023-12-23T12:21:02.202Z,987.831
2023-12-23T12:26:02.326Z,987.801
2023-12-23T12:31:02.607Z,987.679
2023-12-23T12:36:01.033Z,987.644
2023-12-23T12:41:01.794Z,987.689
2023-12-23T12:46:03.501Z,987.5
2023-12-23T12:51:02.065Z,987.6
2023-12-23T12:56:02.387Z,987.452
2023-12-23T13:01:00.443Z,987.463
2023-12-23T13:06:00.480Z,987.568
2023-12-23T13:11:00.641Z,987.434
2023-12-23T13:15:56.812Z,987.732
2023-12-23T13:20:56.115Z,987.196
2023-12-23T13:25:54.791Z,987.418
2023-12-23T13:30:51.608Z,987.26
2023-12-23T13:35:52.288Z,987.412
2023-12-23T13:40:51.915Z,987.159
2023-12-23T13:45:51.471Z,987.103
2023-12-23T13:50:55.761Z,987.133
2023-12-23T13:55:52.157Z,987.057
2023-12-23T14:00:53.656Z,986.906
2023-12-23T14:05:53.333Z,987.18
2023-12-23T14:10:53.754Z,986.997
2023-12-23T14:15:51.820Z,986.735
2023-12-23T14:20:53.342Z,986.8
2023-12-23T14:25:51.649Z,986.618
2023-12-23T14:30:53.694Z,986.561
2023-12-23T14:35:55.441Z,986.506
2023-12-23T14:40:52.389Z,986.549
2023-12-23T14:45:53.542Z,986.735
2023-12-23T14:50:54.265Z,986.616
2023-12-23T14:55:50.904Z,986.468
2023-12-23T15:00:51.407Z,986.554
2023-12-23T15:05:48.591Z,986.437
2023-12-23T15:10:53.361Z,986.246
2023-12-23T15:15:51.348Z,986.411
2023-12-23T15:20:49.596Z,986.495
2023-12-23T15:25:49.344Z,986.547
2023-12-23T15:30:52.163Z,986.563
2023-12-23T15:35:51.308Z,986.8
2023-12-23T15:40:49.538Z,986.66
2023-12-23T15:45:50.428Z,986.992
2023-12-23T15:50:49.215Z,986.975
2023-12-23T15:55:50.048Z,987.16
2023-12-23T16:00:49.853Z,987.233
2023-12-23T16:05:48.180Z,987.449
2023-12-23T16:10:48.258Z,987.426
2023-12-23T16:15:49.121Z,987.418
2023-12-23T16:20:56.280Z,987.642
2023-12-23T16:25:56.957Z,987.766
2023-12-23T16:30:54.505Z,987.808
2023-12-23T16:35:56.326Z,987.888
2023-12-23T16:40:54.682Z,988.208
2023-12-23T16:45:55.087Z,988.249
2023-12-23T16:50:55.953Z,988.485
2023-12-23T16:55:57.177Z,988.647
2023-12-23T17:00:57.133Z,988.621
2023-12-23T17:05:57.298Z,988.591
2023-12-23T17:10:57.318Z,988.778
2023-12-23T17:15:56.968Z,988.857
2023-12-23T17:20:57.075Z,988.894
2023-12-23T17:25:57.323Z,989.028
2023-12-23T17:30:57.511Z,989.106
2023-12-23T17:35:58.264Z,989.26
2023-12-23T17:40:51.935Z,989.492
2023-12-23T17:45:48.773Z,989.439
2023-12-23T17:50:47.913Z,989.48
2023-12-23T17:55:49.226Z,989.717
2023-12-23T18:00:52.553Z,989.692
2023-12-23T18:05:49.990Z,989.716
2023-12-23T18:10:49.306Z,989.718
2023-12-23T18:15:48.429Z,989.666
2023-12-23T18:20:49.356Z,989.628
2023-12-23T18:25:51.466Z,989.98
2023-12-23T18:30:50.855Z,989.97
2023-12-23T18:35:51.801Z,990.106
2023-12-23T18:40:49.571Z,990.371
2023-12-23T18:45:53.665Z,990.294
2023-12-23T18:50:50.050Z,990.457
2023-12-23T18:55:53.513Z,990.65
2023-12-23T19:00:49.520Z,990.73
2023-12-23T19:05:52.148Z,990.766
2023-12-23T19:10:59.307Z,990.712
2023-12-23T19:15:50.418Z,990.973
2023-12-23T19:20:52.064Z,991.028
2023-12-23T19:25:49.434Z,991.256
2023-12-23T19:30:51.374Z,991.211
2023-12-23T19:35:50.814Z,991.376
2023-12-23T19:40:50.941Z,991.38
2023-12-23T19:45:49.774Z,991.625
2023-12-23T19:50:49.698Z,991.471
2023-12-23T19:55:48.566Z,991.802
2023-12-23T20:00:54.098Z,991.774
2023-12-23T20:05:48.946Z,991.714
2023-12-23T20:10:48.093Z,991.851
2023-12-23T20:15:51.418Z,991.928
2023-12-23T20:20:48.720Z,992.009
2023-12-23T20:25:47.888Z,992.15
2023-12-23T20:30:55.559Z,992.162
2023-12-23T20:36:01.081Z,992.072
2023-12-23T20:40:58.325Z,992.195
2023-12-23T20:45:56.535Z,992.308
2023-12-23T20:50:56.305Z,992.317
2023-12-23T20:55:59.017Z,992.348
2023-12-23T21:00:54.121Z,992.433
2023-12-23T21:05:53.501Z,992.317
2023-12-23T21:10:57.345Z,992.22
2023-12-23T21:15:52.288Z,992.329
2023-12-23T21:20:57.568Z,992.308
2023-12-23T21:25:56.694Z,992.403
2023-12-23T21:30:58.552Z,992.358
2023-12-23T21:35:53.802Z,992.235
2023-12-23T21:40:54.316Z,992.316
2023-12-23T21:45:57.625Z,992.197
2023-12-23T21:50:59.078Z,992.264
2023-12-23T21:55:48.782Z,992.256
2023-12-23T22:00:47.958Z,992.174
2023-12-23T22:05:49.841Z,991.855
2023-12-23T22:10:49.088Z,992.033
2023-12-23T22:15:50.080Z,991.872
2023-12-23T22:20:53.990Z,992.115
2023-12-23T22:25:49.792Z,992.041
2023-12-23T22:30:49.114Z,992.11
2023-12-23T22:35:54.946Z,992.028
2023-12-23T22:40:49.306Z,992.313
2023-12-23T22:45:52.956Z,992.09
2023-12-23T22:50:50.298Z,992.013
2023-12-23T22:55:50.199Z,992.005
2023-12-23T23:01:14.629Z,991.793
2023-12-23T23:05:51.536Z,991.757
2023-12-23T23:10:53.759Z,991.804
2023-12-23T23:15:47.901Z,991.764
2023-12-23T23:20:49.324Z,991.727
2023-12-23T23:25:48.519Z,991.857
2023-12-23T23:30:50.483Z,991.957
2023-12-23T23:35:48.703Z,991.999
2023-12-23T23:40:50.514Z,992.018
2023-12-23T23:45:53.921Z,992.001
2023-12-23T23:50:50.599Z,992.068
2023-12-23T23:55:49.328Z,992.321
